sensor_id;sensor_type;location;lat;lon;timestamp;temperature;humidity
27072;DHT22;14613;46.308;25.288;2023-08-21T00:01:36;21.00;69.30
27072;DHT22;14613;46.308;25.288;2023-08-21T00:04:02;21.00;69.30
27072;DHT22;14613;46.308;25.288;2023-08-21T00:06:28;20.90;69.30
27072;DHT22;14613;46.308;25.288;2023-08-21T00:08:54;20.90;69.40
27072;DHT22;14613;46.308;25.288;2023-08-21T00:11:20;20.80;69.60
27072;DHT22;14613;46.308;25.288;2023-08-21T00:13:46;20.80;69.80
27072;DHT22;14613;46.308;25.288;2023-08-21T00:16:14;20.70;69.90
27072;DHT22;14613;46.308;25.288;2023-08-21T00:18:40;20.70;70.00
27072;DHT22;14613;46.308;25.288;2023-08-21T00:21:05;20.70;70.00
27072;DHT22;14613;46.308;25.288;2023-08-21T00:23:31;20.70;70.10
27072;DHT22;14613;46.308;25.288;2023-08-21T00:25:57;20.70;70.10
27072;DHT22;14613;46.308;25.288;2023-08-21T00:28:23;20.70;70.10
27072;DHT22;14613;46.308;25.288;2023-08-21T00:30:48;20.70;70.10
27072;DHT22;14613;46.308;25.288;2023-08-21T00:33:14;20.70;70.10
27072;DHT22;14613;46.308;25.288;2023-08-21T00:35:41;20.70;70.10
27072;DHT22;14613;46.308;25.288;2023-08-21T00:38:07;20.70;70.00
27072;DHT22;14613;46.308;25.288;2023-08-21T00:40:32;20.70;70.10
27072;DHT22;14613;46.308;25.288;2023-08-21T00:42:58;20.60;70.10
27072;DHT22;14613;46.308;25.288;2023-08-21T00:45:24;20.60;70.20
27072;DHT22;14613;46.308;25.288;2023-08-21T00:47:50;20.70;70.30
27072;DHT22;14613;46.308;25.288;2023-08-21T00:50:16;20.60;70.30
27072;DHT22;14613;46.308;25.288;2023-08-21T00:52:45;20.60;70.30
27072;DHT22;14613;46.308;25.288;2023-08-21T00:55:12;20.60;70.40
27072;DHT22;14613;46.308;25.288;2023-08-21T00:57:39;20.60;70.50
27072;DHT22;14613;46.308;25.288;2023-08-21T01:00:05;20.50;70.50
27072;DHT22;14613;46.308;25.288;2023-08-21T01:02:31;20.60;70.60
27072;DHT22;14613;46.308;25.288;2023-08-21T01:04:57;20.50;70.70
27072;DHT22;14613;46.308;25.288;2023-08-21T01:07:23;20.50;70.80
27072;DHT22;14613;46.308;25.288;2023-08-21T01:10:11;20.50;70.90
27072;DHT22;14613;46.308;25.288;2023-08-21T01:13:00;20.50;71.00
27072;DHT22;14613;46.308;25.288;2023-08-21T01:15:29;20.40;71.10
27072;DHT22;14613;46.308;25.288;2023-08-21T01:17:56;20.30;71.20
27072;DHT22;14613;46.308;25.288;2023-08-21T01:20:23;20.20;71.30
27072;DHT22;14613;46.308;25.288;2023-08-21T01:22:49;20.20;71.60
27072;DHT22;14613;46.308;25.288;2023-08-21T01:25:16;20.10;71.60
27072;DHT22;14613;46.308;25.288;2023-08-21T01:27:45;20.10;71.70
27072;DHT22;14613;46.308;25.288;2023-08-21T01:30:11;20.10;71.80
27072;DHT22;14613;46.308;25.288;2023-08-21T01:32:59;20.10;71.90
27072;DHT22;14613;46.308;25.288;2023-08-21T01:35:26;20.00;72.10
27072;DHT22;14613;46.308;25.288;2023-08-21T01:37:53;20.00;72.10
27072;DHT22;14613;46.308;25.288;2023-08-21T01:40:22;20.00;72.10
27072;DHT22;14613;46.308;25.288;2023-08-21T01:42:48;20.00;72.10
27072;DHT22;14613;46.308;25.288;2023-08-21T01:45:14;20.00;72.10
27072;DHT22;14613;46.308;25.288;2023-08-21T01:47:40;20.00;72.10
27072;DHT22;14613;46.308;25.288;2023-08-21T01:50:06;20.00;72.20
27072;DHT22;14613;46.308;25.288;2023-08-21T01:52:32;20.00;72.20
27072;DHT22;14613;46.308;25.288;2023-08-21T01:54:58;19.90;73.10
27072;DHT22;14613;46.308;25.288;2023-08-21T01:57:24;19.90;72.40
27072;DHT22;14613;46.308;25.288;2023-08-21T01:59:49;19.80;72.60
27072;DHT22;14613;46.308;25.288;2023-08-21T02:02:15;19.80;72.70
27072;DHT22;14613;46.308;25.288;2023-08-21T02:04:41;19.80;72.80
27072;DHT22;14613;46.308;25.288;2023-08-21T02:07:07;19.80;72.80
27072;DHT22;14613;46.308;25.288;2023-08-21T02:09:35;19.80;72.90
27072;DHT22;14613;46.308;25.288;2023-08-21T02:12:01;19.80;72.80
27072;DHT22;14613;46.308;25.288;2023-08-21T02:14:26;19.80;72.80
27072;DHT22;14613;46.308;25.288;2023-08-21T02:16:52;19.80;72.80
27072;DHT22;14613;46.308;25.288;2023-08-21T02:19:18;19.80;72.80
27072;DHT22;14613;46.308;25.288;2023-08-21T02:21:44;19.80;72.80
27072;DHT22;14613;46.308;25.288;2023-08-21T02:24:09;19.80;72.80
27072;DHT22;14613;46.308;25.288;2023-08-21T02:26:35;19.80;72.80
27072;DHT22;14613;46.308;25.288;2023-08-21T02:29:01;19.80;72.90
27072;DHT22;14613;46.308;25.288;2023-08-21T02:31:26;19.80;73.00
27072;DHT22;14613;46.308;25.288;2023-08-21T02:33:52;19.80;73.00
27072;DHT22;14613;46.308;25.288;2023-08-21T02:36:18;19.80;73.10
27072;DHT22;14613;46.308;25.288;2023-08-21T02:38:43;19.70;73.10
27072;DHT22;14613;46.308;25.288;2023-08-21T02:41:09;19.60;73.30
27072;DHT22;14613;46.308;25.288;2023-08-21T02:43:35;19.70;73.40
27072;DHT22;14613;46.308;25.288;2023-08-21T02:46:00;19.60;73.40
27072;DHT22;14613;46.308;25.288;2023-08-21T02:48:26;19.60;73.40
27072;DHT22;14613;46.308;25.288;2023-08-21T02:50:52;19.60;73.40
27072;DHT22;14613;46.308;25.288;2023-08-21T02:53:17;19.60;73.40
27072;DHT22;14613;46.308;25.288;2023-08-21T02:55:43;19.60;73.40
27072;DHT22;14613;46.308;25.288;2023-08-21T02:58:09;19.60;73.40
27072;DHT22;14613;46.308;25.288;2023-08-21T03:00:35;19.60;73.50
27072;DHT22;14613;46.308;25.288;2023-08-21T03:03:01;19.50;73.50
27072;DHT22;14613;46.308;25.288;2023-08-21T03:05:26;19.50;73.60
27072;DHT22;14613;46.308;25.288;2023-08-21T03:07:52;19.50;73.70
27072;DHT22;14613;46.308;25.288;2023-08-21T03:10:18;19.50;73.80
27072;DHT22;14613;46.308;25.288;2023-08-21T03:12:44;19.40;73.80
27072;DHT22;14613;46.308;25.288;2023-08-21T03:15:10;19.40;73.80
27072;DHT22;14613;46.308;25.288;2023-08-21T03:17:36;19.40;73.90
27072;DHT22;14613;46.308;25.288;2023-08-21T03:20:02;19.30;73.90
27072;DHT22;14613;46.308;25.288;2023-08-21T03:22:30;19.30;74.00
27072;DHT22;14613;46.308;25.288;2023-08-21T03:24:57;19.30;74.10
27072;DHT22;14613;46.308;25.288;2023-08-21T03:27:24;19.30;74.10
27072;DHT22;14613;46.308;25.288;2023-08-21T03:29:50;19.30;74.20
27072;DHT22;14613;46.308;25.288;2023-08-21T03:32:16;19.30;74.20
27072;DHT22;14613;46.308;25.288;2023-08-21T03:34:42;19.30;74.30
27072;DHT22;14613;46.308;25.288;2023-08-21T03:37:08;19.30;74.40
27072;DHT22;14613;46.308;25.288;2023-08-21T03:39:34;19.20;74.60
27072;DHT22;14613;46.308;25.288;2023-08-21T03:42:00;19.20;74.70
27072;DHT22;14613;46.308;25.288;2023-08-21T03:44:25;19.10;74.90
27072;DHT22;14613;46.308;25.288;2023-08-21T03:46:51;19.10;75.10
27072;DHT22;14613;46.308;25.288;2023-08-21T03:49:17;19.10;75.40
27072;DHT22;14613;46.308;25.288;2023-08-21T03:51:43;19.20;75.60
27072;DHT22;14613;46.308;25.288;2023-08-21T03:54:09;19.30;75.80
27072;DHT22;14613;46.308;25.288;2023-08-21T03:56:34;19.40;76.00
27072;DHT22;14613;46.308;25.288;2023-08-21T03:59:00;19.60;76.10
27072;DHT22;14613;46.308;25.288;2023-08-21T04:01:26;19.80;76.00
27072;DHT22;14613;46.308;25.288;2023-08-21T04:03:52;20.10;75.90
27072;DHT22;14613;46.308;25.288;2023-08-21T04:06:17;20.30;75.50
27072;DHT22;14613;46.308;25.288;2023-08-21T04:08:43;20.60;75.40
27072;DHT22;14613;46.308;25.288;2023-08-21T04:11:09;20.80;75.10
27072;DHT22;14613;46.308;25.288;2023-08-21T04:13:35;21.10;74.90
27072;DHT22;14613;46.308;25.288;2023-08-21T04:16:00;21.40;74.60
27072;DHT22;14613;46.308;25.288;2023-08-21T04:18:26;21.70;74.30
27072;DHT22;14613;46.308;25.288;2023-08-21T04:20:52;22.00;73.90
27072;DHT22;14613;46.308;25.288;2023-08-21T04:23:18;22.30;73.50
27072;DHT22;14613;46.308;25.288;2023-08-21T04:25:43;22.60;72.90
27072;DHT22;14613;46.308;25.288;2023-08-21T04:28:09;22.90;72.60
27072;DHT22;14613;46.308;25.288;2023-08-21T04:30:35;23.20;72.30
27072;DHT22;14613;46.308;25.288;2023-08-21T04:33:01;23.50;71.90
27072;DHT22;14613;46.308;25.288;2023-08-21T04:35:27;23.70;71.50
27072;DHT22;14613;46.308;25.288;2023-08-21T04:37:52;24.00;71.10
27072;DHT22;14613;46.308;25.288;2023-08-21T04:40:18;24.30;70.60
27072;DHT22;14613;46.308;25.288;2023-08-21T04:42:46;24.50;70.10
27072;DHT22;14613;46.308;25.288;2023-08-21T04:45:12;24.70;69.60
27072;DHT22;14613;46.308;25.288;2023-08-21T04:47:38;25.00;69.10
27072;DHT22;14613;46.308;25.288;2023-08-21T04:50:04;25.10;68.60
27072;DHT22;14613;46.308;25.288;2023-08-21T04:52:30;25.30;68.20
27072;DHT22;14613;46.308;25.288;2023-08-21T04:54:56;25.40;67.80
27072;DHT22;14613;46.308;25.288;2023-08-21T04:57:22;25.40;67.60
27072;DHT22;14613;46.308;25.288;2023-08-21T04:59:48;25.50;67.50
27072;DHT22;14613;46.308;25.288;2023-08-21T05:02:14;25.70;67.20
27072;DHT22;14613;46.308;25.288;2023-08-21T05:04:40;25.90;67.10
27072;DHT22;14613;46.308;25.288;2023-08-21T05:07:05;26.10;66.80
27072;DHT22;14613;46.308;25.288;2023-08-21T05:09:32;26.40;66.40
27072;DHT22;14613;46.308;25.288;2023-08-21T05:11:58;26.70;66.10
27072;DHT22;14613;46.308;25.288;2023-08-21T05:14:23;27.00;65.60
27072;DHT22;14613;46.308;25.288;2023-08-21T05:16:49;27.20;65.20
27072;DHT22;14613;46.308;25.288;2023-08-21T05:19:16;27.50;64.60
27072;DHT22;14613;46.308;25.288;2023-08-21T05:21:42;27.70;64.10
27072;DHT22;14613;46.308;25.288;2023-08-21T05:24:08;27.90;63.50
27072;DHT22;14613;46.308;25.288;2023-08-21T05:26:36;28.20;63.30
27072;DHT22;14613;46.308;25.288;2023-08-21T05:29:02;28.40;62.80
27072;DHT22;14613;46.308;25.288;2023-08-21T05:31:28;28.50;62.10
27072;DHT22;14613;46.308;25.288;2023-08-21T05:33:53;28.60;61.80
27072;DHT22;14613;46.308;25.288;2023-08-21T05:36:19;28.80;61.40
27072;DHT22;14613;46.308;25.288;2023-08-21T05:38:45;29.00;61.20
27072;DHT22;14613;46.308;25.288;2023-08-21T05:41:13;29.10;60.60
27072;DHT22;14613;46.308;25.288;2023-08-21T05:43:39;29.30;60.30
27072;DHT22;14613;46.308;25.288;2023-08-21T05:46:07;29.40;60.10
27072;DHT22;14613;46.308;25.288;2023-08-21T05:48:33;29.70;60.00
27072;DHT22;14613;46.308;25.288;2023-08-21T05:50:59;30.00;59.60
27072;DHT22;14613;46.308;25.288;2023-08-21T05:53:25;30.20;59.30
27072;DHT22;14613;46.308;25.288;2023-08-21T05:55:52;30.40;58.70
27072;DHT22;14613;46.308;25.288;2023-08-21T05:58:18;30.60;58.50
27072;DHT22;14613;46.308;25.288;2023-08-21T06:00:44;30.90;58.30
27072;DHT22;14613;46.308;25.288;2023-08-21T06:03:10;31.10;58.00
27072;DHT22;14613;46.308;25.288;2023-08-21T06:05:35;31.30;57.70
27072;DHT22;14613;46.308;25.288;2023-08-21T06:08:02;31.60;57.40
27072;DHT22;14613;46.308;25.288;2023-08-21T06:10:27;31.80;56.80
27072;DHT22;14613;46.308;25.288;2023-08-21T06:12:53;32.00;56.40
27072;DHT22;14613;46.308;25.288;2023-08-21T06:15:19;32.10;56.00
27072;DHT22;14613;46.308;25.288;2023-08-21T06:17:45;32.30;55.80
27072;DHT22;14613;46.308;25.288;2023-08-21T06:20:10;32.40;55.70
27072;DHT22;14613;46.308;25.288;2023-08-21T06:22:37;32.60;55.60
27072;DHT22;14613;46.308;25.288;2023-08-21T06:25:04;32.80;55.20
27072;DHT22;14613;46.308;25.288;2023-08-21T06:27:30;33.00;55.00
27072;DHT22;14613;46.308;25.288;2023-08-21T06:29:55;33.30;54.70
27072;DHT22;14613;46.308;25.288;2023-08-21T06:32:21;33.50;54.30
27072;DHT22;14613;46.308;25.288;2023-08-21T06:34:47;33.60;53.90
27072;DHT22;14613;46.308;25.288;2023-08-21T06:37:13;33.70;53.70
27072;DHT22;14613;46.308;25.288;2023-08-21T06:39:39;33.80;53.50
27072;DHT22;14613;46.308;25.288;2023-08-21T06:42:05;34.00;53.20
27072;DHT22;14613;46.308;25.288;2023-08-21T06:44:31;34.10;52.80
27072;DHT22;14613;46.308;25.288;2023-08-21T06:46:56;34.20;52.70
27072;DHT22;14613;46.308;25.288;2023-08-21T06:49:22;34.20;52.30
27072;DHT22;14613;46.308;25.288;2023-08-21T06:51:49;34.30;52.10
27072;DHT22;14613;46.308;25.288;2023-08-21T06:54:15;34.30;51.70
27072;DHT22;14613;46.308;25.288;2023-08-21T06:56:41;34.30;51.50
27072;DHT22;14613;46.308;25.288;2023-08-21T06:59:07;34.30;51.40
27072;DHT22;14613;46.308;25.288;2023-08-21T07:01:33;34.30;51.90
27072;DHT22;14613;46.308;25.288;2023-08-21T07:03:58;34.10;51.00
27072;DHT22;14613;46.308;25.288;2023-08-21T07:06:26;34.10;51.30
27072;DHT22;14613;46.308;25.288;2023-08-21T07:08:53;34.20;51.20
27072;DHT22;14613;46.308;25.288;2023-08-21T07:11:18;34.40;50.90
27072;DHT22;14613;46.308;25.288;2023-08-21T07:13:44;34.50;50.80
27072;DHT22;14613;46.308;25.288;2023-08-21T07:16:10;34.60;50.70
27072;DHT22;14613;46.308;25.288;2023-08-21T07:18:36;34.80;50.50
27072;DHT22;14613;46.308;25.288;2023-08-21T07:21:02;35.00;50.40
27072;DHT22;14613;46.308;25.288;2023-08-21T07:23:32;35.10;50.20
27072;DHT22;14613;46.308;25.288;2023-08-21T07:25:59;35.30;49.90
27072;DHT22;14613;46.308;25.288;2023-08-21T07:28:25;35.50;49.80
27072;DHT22;14613;46.308;25.288;2023-08-21T07:30:55;35.60;49.60
27072;DHT22;14613;46.308;25.288;2023-08-21T07:33:22;35.70;49.50
27072;DHT22;14613;46.308;25.288;2023-08-21T07:35:48;35.80;49.50
27072;DHT22;14613;46.308;25.288;2023-08-21T07:38:21;35.90;49.30
27072;DHT22;14613;46.308;25.288;2023-08-21T07:40:47;35.90;49.20
27072;DHT22;14613;46.308;25.288;2023-08-21T07:43:13;36.00;49.20
27072;DHT22;14613;46.308;25.288;2023-08-21T07:45:38;36.10;49.20
27072;DHT22;14613;46.308;25.288;2023-08-21T07:48:04;36.20;49.00
27072;DHT22;14613;46.308;25.288;2023-08-21T07:50:30;36.30;48.70
27072;DHT22;14613;46.308;25.288;2023-08-21T07:52:56;36.30;48.50
27072;DHT22;14613;46.308;25.288;2023-08-21T07:55:22;36.40;48.30
27072;DHT22;14613;46.308;25.288;2023-08-21T07:57:47;36.30;48.10
27072;DHT22;14613;46.308;25.288;2023-08-21T08:00:14;36.30;48.00
27072;DHT22;14613;46.308;25.288;2023-08-21T08:02:40;36.30;48.10
27072;DHT22;14613;46.308;25.288;2023-08-21T08:05:06;36.30;48.00
27072;DHT22;14613;46.308;25.288;2023-08-21T08:07:32;36.30;47.80
27072;DHT22;14613;46.308;25.288;2023-08-21T08:09:57;36.30;47.70
27072;DHT22;14613;46.308;25.288;2023-08-21T08:12:23;36.30;47.30
27072;DHT22;14613;46.308;25.288;2023-08-21T08:14:49;36.30;47.60
27072;DHT22;14613;46.308;25.288;2023-08-21T08:17:14;36.30;47.50
27072;DHT22;14613;46.308;25.288;2023-08-21T08:19:40;36.30;47.50
27072;DHT22;14613;46.308;25.288;2023-08-21T08:22:06;36.30;47.50
27072;DHT22;14613;46.308;25.288;2023-08-21T08:24:31;36.40;47.40
27072;DHT22;14613;46.308;25.288;2023-08-21T08:26:57;36.50;47.30
27072;DHT22;14613;46.308;25.288;2023-08-21T08:29:23;36.50;47.00
27072;DHT22;14613;46.308;25.288;2023-08-21T08:31:49;36.50;47.20
27072;DHT22;14613;46.308;25.288;2023-08-21T08:34:14;36.50;47.20
27072;DHT22;14613;46.308;25.288;2023-08-21T08:36:40;36.70;47.20
27072;DHT22;14613;46.308;25.288;2023-08-21T08:39:07;36.80;47.10
27072;DHT22;14613;46.308;25.288;2023-08-21T08:41:42;36.90;47.10
27072;DHT22;14613;46.308;25.288;2023-08-21T08:44:09;37.00;46.90
27072;DHT22;14613;46.308;25.288;2023-08-21T08:46:35;37.00;46.80
27072;DHT22;14613;46.308;25.288;2023-08-21T08:49:03;37.00;46.80
27072;DHT22;14613;46.308;25.288;2023-08-21T08:51:30;37.10;46.80
27072;DHT22;14613;46.308;25.288;2023-08-21T08:53:58;37.20;46.80
27072;DHT22;14613;46.308;25.288;2023-08-21T08:56:24;37.30;46.70
27072;DHT22;14613;46.308;25.288;2023-08-21T08:58:51;37.40;46.70
27072;DHT22;14613;46.308;25.288;2023-08-21T09:01:16;37.40;46.60
27072;DHT22;14613;46.308;25.288;2023-08-21T09:03:42;37.40;46.70
27072;DHT22;14613;46.308;25.288;2023-08-21T09:06:08;37.50;46.80
27072;DHT22;14613;46.308;25.288;2023-08-21T09:08:34;37.50;46.80
27072;DHT22;14613;46.308;25.288;2023-08-21T09:11:03;37.60;46.70
27072;DHT22;14613;46.308;25.288;2023-08-21T09:13:31;37.70;46.60
27072;DHT22;14613;46.308;25.288;2023-08-21T09:15:57;37.70;46.60
27072;DHT22;14613;46.308;25.288;2023-08-21T09:18:24;37.70;46.50
27072;DHT22;14613;46.308;25.288;2023-08-21T09:20:49;37.80;46.50
27072;DHT22;14613;46.308;25.288;2023-08-21T09:23:17;37.80;46.40
27072;DHT22;14613;46.308;25.288;2023-08-21T09:25:47;37.90;46.20
27072;DHT22;14613;46.308;25.288;2023-08-21T09:28:13;38.00;46.10
27072;DHT22;14613;46.308;25.288;2023-08-21T09:30:50;38.00;46.10
27072;DHT22;14613;46.308;25.288;2023-08-21T09:33:20;38.00;45.90
27072;DHT22;14613;46.308;25.288;2023-08-21T09:35:47;38.00;45.80
27072;DHT22;14613;46.308;25.288;2023-08-21T09:38:13;38.00;45.80
27072;DHT22;14613;46.308;25.288;2023-08-21T09:40:49;38.10;45.70
27072;DHT22;14613;46.308;25.288;2023-08-21T09:43:16;38.20;45.40
27072;DHT22;14613;46.308;25.288;2023-08-21T09:45:50;38.30;45.10
27072;DHT22;14613;46.308;25.288;2023-08-21T09:48:22;38.20;44.90
27072;DHT22;14613;46.308;25.288;2023-08-21T09:50:52;38.20;45.00
27072;DHT22;14613;46.308;25.288;2023-08-21T09:53:21;38.30;45.00
27072;DHT22;14613;46.308;25.288;2023-08-21T09:55:52;38.30;44.90
27072;DHT22;14613;46.308;25.288;2023-08-21T09:58:19;38.40;45.00
27072;DHT22;14613;46.308;25.288;2023-08-21T10:00:45;38.40;45.00
27072;DHT22;14613;46.308;25.288;2023-08-21T10:03:17;38.40;44.90
27072;DHT22;14613;46.308;25.288;2023-08-21T10:05:43;38.50;44.60
27072;DHT22;14613;46.308;25.288;2023-08-21T10:08:10;38.60;44.50
27072;DHT22;14613;46.308;25.288;2023-08-21T10:10:38;38.60;44.30
27072;DHT22;14613;46.308;25.288;2023-08-21T10:13:04;38.60;44.10
27072;DHT22;14613;46.308;25.288;2023-08-21T10:15:35;38.60;44.20
27072;DHT22;14613;46.308;25.288;2023-08-21T10:18:24;38.60;44.10
27072;DHT22;14613;46.308;25.288;2023-08-21T10:20:54;38.70;43.90
27072;DHT22;14613;46.308;25.288;2023-08-21T10:23:28;38.60;43.80
27072;DHT22;14613;46.308;25.288;2023-08-21T10:25:56;38.60;43.60
27072;DHT22;14613;46.308;25.288;2023-08-21T10:28:22;38.60;43.60
27072;DHT22;14613;46.308;25.288;2023-08-21T10:30:49;38.70;43.70
27072;DHT22;14613;46.308;25.288;2023-08-21T10:33:15;38.80;43.60
27072;DHT22;14613;46.308;25.288;2023-08-21T10:35:40;38.90;43.80
27072;DHT22;14613;46.308;25.288;2023-08-21T10:38:10;39.00;43.30
27072;DHT22;14613;46.308;25.288;2023-08-21T10:40:39;39.00;43.30
27072;DHT22;14613;46.308;25.288;2023-08-21T10:43:05;39.10;43.10
27072;DHT22;14613;46.308;25.288;2023-08-21T10:45:54;39.10;42.90
27072;DHT22;14613;46.308;25.288;2023-08-21T10:48:21;39.20;42.80
27072;DHT22;14613;46.308;25.288;2023-08-21T10:50:46;39.00;42.30
27072;DHT22;14613;46.308;25.288;2023-08-21T10:53:13;38.80;42.10
27072;DHT22;14613;46.308;25.288;2023-08-21T10:55:39;38.40;42.30
27072;DHT22;14613;46.308;25.288;2023-08-21T10:58:04;38.30;42.60
27072;DHT22;14613;46.308;25.288;2023-08-21T11:00:30;38.20;42.30
27072;DHT22;14613;46.308;25.288;2023-08-21T11:02:56;37.90;42.20
27072;DHT22;14613;46.308;25.288;2023-08-21T11:05:22;37.70;42.50
27072;DHT22;14613;46.308;25.288;2023-08-21T11:07:48;37.30;42.60
27072;DHT22;14613;46.308;25.288;2023-08-21T11:10:23;37.00;43.10
27072;DHT22;14613;46.308;25.288;2023-08-21T11:12:50;36.90;43.70
27072;DHT22;14613;46.308;25.288;2023-08-21T11:15:17;36.90;43.90
27072;DHT22;14613;46.308;25.288;2023-08-21T11:17:50;36.90;44.00
27072;DHT22;14613;46.308;25.288;2023-08-21T11:20:16;36.90;43.90
27072;DHT22;14613;46.308;25.288;2023-08-21T11:22:41;36.90;43.80
27072;DHT22;14613;46.308;25.288;2023-08-21T11:25:07;36.70;43.70
27072;DHT22;14613;46.308;25.288;2023-08-21T11:27:33;36.70;44.00
27072;DHT22;14613;46.308;25.288;2023-08-21T11:30:00;36.70;44.10
27072;DHT22;14613;46.308;25.288;2023-08-21T11:32:27;36.80;44.20
27072;DHT22;14613;46.308;25.288;2023-08-21T11:34:56;36.90;44.20
27072;DHT22;14613;46.308;25.288;2023-08-21T11:37:24;37.00;44.00
27072;DHT22;14613;46.308;25.288;2023-08-21T11:39:57;37.10;44.00
27072;DHT22;14613;46.308;25.288;2023-08-21T11:42:31;37.20;43.90
27072;DHT22;14613;46.308;25.288;2023-08-21T11:44:59;37.30;43.80
27072;DHT22;14613;46.308;25.288;2023-08-21T11:47:30;37.40;43.80
27072;DHT22;14613;46.308;25.288;2023-08-21T11:49:56;37.50;43.70
27072;DHT22;14613;46.308;25.288;2023-08-21T11:52:23;37.50;43.60
27072;DHT22;14613;46.308;25.288;2023-08-21T11:54:54;37.50;43.60
27072;DHT22;14613;46.308;25.288;2023-08-21T11:57:21;37.60;43.70
27072;DHT22;14613;46.308;25.288;2023-08-21T11:59:52;37.60;43.60
27072;DHT22;14613;46.308;25.288;2023-08-21T12:02:28;37.70;43.50
27072;DHT22;14613;46.308;25.288;2023-08-21T12:05:00;37.70;43.50
27072;DHT22;14613;46.308;25.288;2023-08-21T12:07:26;37.80;43.50
27072;DHT22;14613;46.308;25.288;2023-08-21T12:09:52;37.80;43.30
27072;DHT22;14613;46.308;25.288;2023-08-21T12:12:18;37.80;43.20
27072;DHT22;14613;46.308;25.288;2023-08-21T12:14:43;37.80;42.80
27072;DHT22;14613;46.308;25.288;2023-08-21T12:17:09;37.70;42.50
27072;DHT22;14613;46.308;25.288;2023-08-21T12:19:35;37.60;42.40
27072;DHT22;14613;46.308;25.288;2023-08-21T12:22:02;37.50;42.30
27072;DHT22;14613;46.308;25.288;2023-08-21T12:24:28;37.30;42.40
27072;DHT22;14613;46.308;25.288;2023-08-21T12:26:53;37.30;42.60
27072;DHT22;14613;46.308;25.288;2023-08-21T12:29:19;37.20;42.60
27072;DHT22;14613;46.308;25.288;2023-08-21T12:31:45;37.20;42.70
27072;DHT22;14613;46.308;25.288;2023-08-21T12:34:12;37.10;42.70
27072;DHT22;14613;46.308;25.288;2023-08-21T12:36:38;37.10;42.80
27072;DHT22;14613;46.308;25.288;2023-08-21T12:39:04;37.00;42.80
27072;DHT22;14613;46.308;25.288;2023-08-21T12:41:31;37.00;42.90
27072;DHT22;14613;46.308;25.288;2023-08-21T12:43:59;37.00;43.00
27072;DHT22;14613;46.308;25.288;2023-08-21T12:46:24;37.00;43.00
27072;DHT22;14613;46.308;25.288;2023-08-21T12:48:53;37.00;42.90
27072;DHT22;14613;46.308;25.288;2023-08-21T12:51:19;37.00;43.00
27072;DHT22;14613;46.308;25.288;2023-08-21T12:53:45;37.00;43.00
27072;DHT22;14613;46.308;25.288;2023-08-21T12:56:11;37.00;42.90
27072;DHT22;14613;46.308;25.288;2023-08-21T12:58:37;36.90;42.80
27072;DHT22;14613;46.308;25.288;2023-08-21T13:01:02;36.80;42.80
27072;DHT22;14613;46.308;25.288;2023-08-21T13:03:29;36.70;43.10
27072;DHT22;14613;46.308;25.288;2023-08-21T13:05:55;36.70;43.20
27072;DHT22;14613;46.308;25.288;2023-08-21T13:08:21;36.80;43.40
27072;DHT22;14613;46.308;25.288;2023-08-21T13:10:47;36.80;43.30
27072;DHT22;14613;46.308;25.288;2023-08-21T13:13:12;36.80;43.40
27072;DHT22;14613;46.308;25.288;2023-08-21T13:15:38;36.80;43.40
27072;DHT22;14613;46.308;25.288;2023-08-21T13:18:04;36.90;43.60
27072;DHT22;14613;46.308;25.288;2023-08-21T13:20:30;36.90;43.60
27072;DHT22;14613;46.308;25.288;2023-08-21T13:22:56;36.90;43.60
27072;DHT22;14613;46.308;25.288;2023-08-21T13:25:25;36.80;43.80
27072;DHT22;14613;46.308;25.288;2023-08-21T13:27:51;36.80;43.90
27072;DHT22;14613;46.308;25.288;2023-08-21T13:30:17;36.70;43.90
27072;DHT22;14613;46.308;25.288;2023-08-21T13:32:44;36.70;43.90
27072;DHT22;14613;46.308;25.288;2023-08-21T13:35:10;36.70;44.00
27072;DHT22;14613;46.308;25.288;2023-08-21T13:37:37;36.70;44.10
27072;DHT22;14613;46.308;25.288;2023-08-21T13:40:04;36.70;44.10
27072;DHT22;14613;46.308;25.288;2023-08-21T13:42:40;36.70;44.30
27072;DHT22;14613;46.308;25.288;2023-08-21T13:45:09;36.60;44.20
27072;DHT22;14613;46.308;25.288;2023-08-21T13:47:38;36.60;44.30
27072;DHT22;14613;46.308;25.288;2023-08-21T13:50:05;36.60;44.30
27072;DHT22;14613;46.308;25.288;2023-08-21T13:52:31;36.50;44.40
27072;DHT22;14613;46.308;25.288;2023-08-21T13:54:58;36.50;44.50
27072;DHT22;14613;46.308;25.288;2023-08-21T13:57:24;36.50;44.60
27072;DHT22;14613;46.308;25.288;2023-08-21T13:59:50;36.50;44.70
27072;DHT22;14613;46.308;25.288;2023-08-21T14:02:16;36.40;44.60
27072;DHT22;14613;46.308;25.288;2023-08-21T14:04:44;36.40;44.50
27072;DHT22;14613;46.308;25.288;2023-08-21T14:07:09;36.40;44.50
27072;DHT22;14613;46.308;25.288;2023-08-21T14:09:35;36.40;44.40
27072;DHT22;14613;46.308;25.288;2023-08-21T14:12:02;36.40;44.30
27072;DHT22;14613;46.308;25.288;2023-08-21T14:14:28;36.30;44.20
27072;DHT22;14613;46.308;25.288;2023-08-21T14:16:53;36.20;44.10
27072;DHT22;14613;46.308;25.288;2023-08-21T14:19:19;36.00;44.20
27072;DHT22;14613;46.308;25.288;2023-08-21T14:21:45;36.00;44.30
27072;DHT22;14613;46.308;25.288;2023-08-21T14:24:11;35.90;44.40
27072;DHT22;14613;46.308;25.288;2023-08-21T14:26:36;35.80;44.50
27072;DHT22;14613;46.308;25.288;2023-08-21T14:29:02;35.80;44.60
27072;DHT22;14613;46.308;25.288;2023-08-21T14:31:28;35.80;44.70
27072;DHT22;14613;46.308;25.288;2023-08-21T14:33:53;35.70;44.70
27072;DHT22;14613;46.308;25.288;2023-08-21T14:36:19;35.70;44.80
27072;DHT22;14613;46.308;25.288;2023-08-21T14:38:45;35.70;44.90
27072;DHT22;14613;46.308;25.288;2023-08-21T14:41:10;35.70;45.00
27072;DHT22;14613;46.308;25.288;2023-08-21T14:43:36;35.70;45.00
27072;DHT22;14613;46.308;25.288;2023-08-21T14:46:02;35.70;45.20
27072;DHT22;14613;46.308;25.288;2023-08-21T14:48:29;35.60;45.20
27072;DHT22;14613;46.308;25.288;2023-08-21T14:50:55;35.50;45.30
27072;DHT22;14613;46.308;25.288;2023-08-21T14:53:21;35.40;45.50
27072;DHT22;14613;46.308;25.288;2023-08-21T14:55:47;35.20;45.60
27072;DHT22;14613;46.308;25.288;2023-08-21T14:58:12;35.00;45.80
27072;DHT22;14613;46.308;25.288;2023-08-21T15:00:38;34.80;46.10
27072;DHT22;14613;46.308;25.288;2023-08-21T15:03:04;34.70;46.30
27072;DHT22;14613;46.308;25.288;2023-08-21T15:05:29;34.60;46.50
27072;DHT22;14613;46.308;25.288;2023-08-21T15:07:55;34.50;46.60
27072;DHT22;14613;46.308;25.288;2023-08-21T15:10:21;34.30;46.70
27072;DHT22;14613;46.308;25.288;2023-08-21T15:12:47;34.20;46.90